Sunday, December 17, 2017, 9:56 PM EST
Back to Local

KERI, Erie International Airport

Location: Erie, PA, United States Lat: 42.083
Local Time: 9:56 PM EST ( 2:56 GMT) Lon: -80.183
Time Zone: US/Eastern Elev: 731 ft

Show me the last for .
Show Decoded

2017-12-17 20:51 METAR KERI 180151Z AUTO 20005KT 8SM FEW075 02/M02 A3007 RMK AO2 SLP192 T00171017
                 =
2017-12-17 19:51 METAR KERI 180051Z AUTO 00000KT 6SM BR OVC120 M01/M03 A3009 RMK AO2 SLP198
                 T10061028 =
2017-12-17 18:51 METAR KERI 172351Z 00000KT 4SM BR CLR M03/M03 A3009 RMK AO2 SLP200 T10281033
                 11011 21028 57012 =
2017-12-17 17:51 METAR KERI 172251Z 00000KT 5SM BR CLR M02/M04 A3009 RMK AO2 SLP200 T10221039 =
2017-12-17 16:51 METAR KERI 172151Z 07004KT 5SM BR CLR M01/M03 A3012 RMK AO2 SLP211 T10111033 =
2017-12-17 15:51 METAR KERI 172051Z 05007KT 4SM BR CLR M02/M03 A3013 RMK AO2 SLP212 T10171033
                 55015 =
2017-12-17 14:51 METAR KERI 171951Z 06007KT 4SM BR CLR M02/M04 A3011 RMK AO2 SLP207 T10171039 =
2017-12-17 13:51 METAR KERI 171851Z 06007KT 4SM HZ CLR M01/M04 A3014 RMK AO2 SLP214 T10111039 =
2017-12-17 12:51 METAR KERI 171751Z 00000KT 5SM BR CLR M02/M04 A3017 RMK AO2 SLP228 T10171039
                 11017 21067 58019 =
2017-12-17 11:51 METAR KERI 171651Z 06007KT 6SM HZ CLR M02/M05 A3018 RMK AO2 SLP230 T10221050 =
2017-12-17 10:51 METAR KERI 171551Z 08003KT 7SM CLR M03/M05 A3023 RMK AO2 SLP246 T10281050 =
2017-12-17 09:51 METAR KERI 171451Z AUTO 07007KT 6SM BR CLR M04/M06 A3023 RMK AO2 SLP247
                 T10391061 55000 =
2017-12-17 08:51 METAR KERI 171351Z 08005KT 5SM BR CLR M06/M07 A3023 RMK AO2 SLP246 T10561072 =
2017-12-17 08:22 METAR KERI 171322Z 07005KT 5SM BR SCT024 SCT039 M07/M08 A3022 RMK AO2 T10671078
                 =
2017-12-17 07:51 METAR KERI 171251Z 08004KT 7SM OVC025 M06/M08 A3023 RMK AO2 SLP246 T10561078 =
2017-12-17 07:27 METAR KERI 171227Z 09003KT 9SM BKN027 M06/M08 A3024 RMK AO2 T10611078 $ =
2017-12-17 06:51 METAR KERI 171151Z 05004KT 10SM CLR M06/M08 A3023 RMK AO2 SLP247 70025 T10611083
                 11028 21061 53015 $ =
2017-12-17 05:51 METAR KERI 171051Z 06009KT 10SM CLR M05/M07 A3020 RMK AO2 SLP236 T10501072 $ =
2017-12-17 04:51 METAR KERI 170951Z 06007KT 8SM FEW016 M05/M07 A3019 RMK AO2 SLP234 T10501072 $ =
2017-12-17 04:41 METAR KERI 170941Z 07007KT 8SM FEW016 M04/M06 A3019 RMK AO2 T10441061 $ =
2017-12-17 04:02 METAR KERI 170902Z 08007KT 7SM BKN017 M04/M06 A3019 RMK AO2 T10391056 $ =
2017-12-17 03:51 METAR KERI 170851Z 07006KT 6SM BR SCT017 M05/M07 A3019 RMK AO2 SLP232 T10501067
                 50007 $ =
2017-12-17 02:51 METAR KERI 170751Z 07005KT 5SM BR FEW012 FEW070 M04/M06 A3020 RMK AO2 SLP236
                 T10441056 $ =
2017-12-17 02:37 METAR KERI 170737Z 08004KT 5SM BR SCT013 BKN070 M04/M06 A3020 RMK AO2 CIG 012 NE
                 T10441056 $ =
2017-12-17 01:51 METAR KERI 170651Z 08004KT 6SM BR OVC013 M03/M04 A3019 RMK AO2 SLP234 T10281039
                 $ =
2017-12-17 01:42 METAR KERI 170642Z 08004KT 6SM BR OVC014 M03/M04 A3019 RMK AO2 T10281039 $ =
2017-12-17 01:13 METAR KERI 170613Z 07006KT 3SM BR OVC015 M03/M04 A3017 RMK AO2 T10331044 $ =
2017-12-17 00:51 METAR KERI 170551Z 00000KT 1 1/4SM BR BKN015 BKN070 M03/M04 A3016 RMK AO2 VIS
                 3/4V2 1/2 SLP223 T10331039 11011 21039 51007 $ =
2017-12-17 00:39 METAR KERI 170539Z 00000KT 1 3/4SM BR FEW070 M03/M04 A3016 RMK AO2 T10331039 $ =
2017-12-16 23:51 METAR KERI 170451Z 00000KT 5SM BR OVC070 M02/M03 A3016 RMK AO2 SLP222 T10171028
                 400001039 $ =
2017-12-16 22:51 METAR KERI 170351Z 00000KT 5SM BR OVC070 M02/M03 A3016 RMK AO2 SLP221 T10171028
                 $ =

Support USWX by starting your Amazon purchase here.